sensor_id;sensor_type;location;lat;lon;timestamp;temperature;humidity
75985;DHT22;65033;44.660;37.758;2024-01-07T00:00:37;12.52;78.81
75985;DHT22;65033;44.660;37.758;2024-01-07T00:01:47;12.55;78.82
75985;DHT22;65033;44.660;37.758;2024-01-07T00:02:53;12.55;78.77
75985;DHT22;65033;44.660;37.758;2024-01-07T00:03:56;12.57;78.92
75985;DHT22;65033;44.660;37.758;2024-01-07T00:05:00;12.58;78.54
75985;DHT22;65033;44.660;37.758;2024-01-07T00:06:05;12.55;78.65
75985;DHT22;65033;44.660;37.758;2024-01-07T00:07:08;12.55;78.79
75985;DHT22;65033;44.660;37.758;2024-01-07T00:08:14;12.53;79.01
75985;DHT22;65033;44.660;37.758;2024-01-07T00:09:18;12.52;79.15
75985;DHT22;65033;44.660;37.758;2024-01-07T00:10:21;12.51;79.24
75985;DHT22;65033;44.660;37.758;2024-01-07T00:11:25;12.50;79.56
75985;DHT22;65033;44.660;37.758;2024-01-07T00:12:29;12.51;79.85
75985;DHT22;65033;44.660;37.758;2024-01-07T00:13:32;12.48;79.33
75985;DHT22;65033;44.660;37.758;2024-01-07T00:14:36;12.50;78.91
75985;DHT22;65033;44.660;37.758;2024-01-07T00:15:40;12.50;78.79
75985;DHT22;65033;44.660;37.758;2024-01-07T00:16:43;12.48;78.57
75985;DHT22;65033;44.660;37.758;2024-01-07T00:17:47;12.50;78.71
75985;DHT22;65033;44.660;37.758;2024-01-07T00:18:51;12.51;79.23
75985;DHT22;65033;44.660;37.758;2024-01-07T00:19:54;12.55;79.30
75985;DHT22;65033;44.660;37.758;2024-01-07T00:20:58;12.53;79.37
75985;DHT22;65033;44.660;37.758;2024-01-07T00:22:02;12.53;79.55
75985;DHT22;65033;44.660;37.758;2024-01-07T00:23:06;12.53;79.69
75985;DHT22;65033;44.660;37.758;2024-01-07T00:24:11;12.53;79.88
75985;DHT22;65033;44.660;37.758;2024-01-07T00:25:15;12.53;79.78
75985;DHT22;65033;44.660;37.758;2024-01-07T00:26:18;12.50;79.21
75985;DHT22;65033;44.660;37.758;2024-01-07T00:27:22;12.51;79.17
75985;DHT22;65033;44.660;37.758;2024-01-07T00:28:26;12.52;79.21
75985;DHT22;65033;44.660;37.758;2024-01-07T00:29:29;12.51;78.96
75985;DHT22;65033;44.660;37.758;2024-01-07T00:30:34;12.49;79.17
75985;DHT22;65033;44.660;37.758;2024-01-07T00:31:37;12.51;79.05
75985;DHT22;65033;44.660;37.758;2024-01-07T00:32:42;12.50;79.04
75985;DHT22;65033;44.660;37.758;2024-01-07T00:33:46;12.52;79.11
75985;DHT22;65033;44.660;37.758;2024-01-07T00:34:50;12.52;79.50
75985;DHT22;65033;44.660;37.758;2024-01-07T00:35:56;12.51;79.24
75985;DHT22;65033;44.660;37.758;2024-01-07T00:37:00;12.50;78.88
75985;DHT22;65033;44.660;37.758;2024-01-07T00:38:04;12.51;78.88
75985;DHT22;65033;44.660;37.758;2024-01-07T00:39:07;12.50;78.50
75985;DHT22;65033;44.660;37.758;2024-01-07T00:40:13;12.50;78.46
75985;DHT22;65033;44.660;37.758;2024-01-07T00:41:17;12.48;78.40
75985;DHT22;65033;44.660;37.758;2024-01-07T00:42:21;12.50;78.40
75985;DHT22;65033;44.660;37.758;2024-01-07T00:43:25;12.50;78.36
75985;DHT22;65033;44.660;37.758;2024-01-07T00:44:29;12.51;78.66
75985;DHT22;65033;44.660;37.758;2024-01-07T00:45:33;12.51;78.98
75985;DHT22;65033;44.660;37.758;2024-01-07T00:46:38;12.48;79.19
75985;DHT22;65033;44.660;37.758;2024-01-07T00:47:41;12.48;78.65
75985;DHT22;65033;44.660;37.758;2024-01-07T00:48:45;12.50;78.61
75985;DHT22;65033;44.660;37.758;2024-01-07T00:49:49;12.49;78.38
75985;DHT22;65033;44.660;37.758;2024-01-07T00:50:53;12.49;78.12
75985;DHT22;65033;44.660;37.758;2024-01-07T00:51:58;12.49;77.66
75985;DHT22;65033;44.660;37.758;2024-01-07T00:53:02;12.48;77.68
75985;DHT22;65033;44.660;37.758;2024-01-07T00:54:06;12.47;77.89
75985;DHT22;65033;44.660;37.758;2024-01-07T00:55:09;12.47;77.78
75985;DHT22;65033;44.660;37.758;2024-01-07T00:56:15;12.46;77.44
75985;DHT22;65033;44.660;37.758;2024-01-07T00:57:18;12.46;77.42
75985;DHT22;65033;44.660;37.758;2024-01-07T00:58:22;12.48;77.91
75985;DHT22;65033;44.660;37.758;2024-01-07T00:59:28;12.46;78.06
75985;DHT22;65033;44.660;37.758;2024-01-07T01:00:32;12.46;78.50
75985;DHT22;65033;44.660;37.758;2024-01-07T01:01:36;12.46;78.56
75985;DHT22;65033;44.660;37.758;2024-01-07T01:02:41;12.46;78.52
75985;DHT22;65033;44.660;37.758;2024-01-07T01:03:45;12.46;78.30
75985;DHT22;65033;44.660;37.758;2024-01-07T01:04:48;12.47;78.06
75985;DHT22;65033;44.660;37.758;2024-01-07T01:05:52;12.46;77.53
75985;DHT22;65033;44.660;37.758;2024-01-07T01:06:56;12.46;77.27
75985;DHT22;65033;44.660;37.758;2024-01-07T01:08:00;12.47;77.74
75985;DHT22;65033;44.660;37.758;2024-01-07T01:09:04;12.45;77.82
75985;DHT22;65033;44.660;37.758;2024-01-07T01:10:08;12.46;77.64
75985;DHT22;65033;44.660;37.758;2024-01-07T01:11:14;12.47;77.86
75985;DHT22;65033;44.660;37.758;2024-01-07T01:12:18;12.46;78.00
75985;DHT22;65033;44.660;37.758;2024-01-07T01:13:21;12.44;77.94
75985;DHT22;65033;44.660;37.758;2024-01-07T01:14:25;12.44;77.85
75985;DHT22;65033;44.660;37.758;2024-01-07T01:15:29;12.44;77.67
75985;DHT22;65033;44.660;37.758;2024-01-07T01:16:32;12.45;77.70
75985;DHT22;65033;44.660;37.758;2024-01-07T01:17:36;12.46;77.47
75985;DHT22;65033;44.660;37.758;2024-01-07T01:18:40;12.44;77.24
75985;DHT22;65033;44.660;37.758;2024-01-07T01:19:44;12.43;77.31
75985;DHT22;65033;44.660;37.758;2024-01-07T01:20:48;12.45;77.66
75985;DHT22;65033;44.660;37.758;2024-01-07T01:21:52;12.44;78.11
75985;DHT22;65033;44.660;37.758;2024-01-07T01:22:55;12.45;78.02
75985;DHT22;65033;44.660;37.758;2024-01-07T01:23:59;12.42;78.02
75985;DHT22;65033;44.660;37.758;2024-01-07T01:25:04;12.41;77.98
75985;DHT22;65033;44.660;37.758;2024-01-07T01:26:08;12.41;77.82
75985;DHT22;65033;44.660;37.758;2024-01-07T01:27:13;12.41;77.82
75985;DHT22;65033;44.660;37.758;2024-01-07T01:28:19;12.42;78.06
75985;DHT22;65033;44.660;37.758;2024-01-07T01:29:22;12.42;78.29
75985;DHT22;65033;44.660;37.758;2024-01-07T01:30:26;12.41;78.56
75985;DHT22;65033;44.660;37.758;2024-01-07T01:31:34;12.42;78.38
75985;DHT22;65033;44.660;37.758;2024-01-07T01:32:38;12.41;78.08
75985;DHT22;65033;44.660;37.758;2024-01-07T01:33:42;12.37;78.06
75985;DHT22;65033;44.660;37.758;2024-01-07T01:34:46;12.37;78.43
75985;DHT22;65033;44.660;37.758;2024-01-07T01:35:49;12.35;78.27
75985;DHT22;65033;44.660;37.758;2024-01-07T01:36:53;12.36;77.58
75985;DHT22;65033;44.660;37.758;2024-01-07T01:37:57;12.35;77.35
75985;DHT22;65033;44.660;37.758;2024-01-07T01:39:01;12.36;77.89
75985;DHT22;65033;44.660;37.758;2024-01-07T01:40:05;12.37;78.72
75985;DHT22;65033;44.660;37.758;2024-01-07T01:41:09;12.37;78.92
75985;DHT22;65033;44.660;37.758;2024-01-07T01:42:14;12.37;79.15
75985;DHT22;65033;44.660;37.758;2024-01-07T01:43:23;12.40;79.24
75985;DHT22;65033;44.660;37.758;2024-01-07T01:44:26;12.40;79.53
75985;DHT22;65033;44.660;37.758;2024-01-07T01:45:35;12.41;79.10
75985;DHT22;65033;44.660;37.758;2024-01-07T01:46:38;12.40;79.17
75985;DHT22;65033;44.660;37.758;2024-01-07T01:47:43;12.38;79.21
75985;DHT22;65033;44.660;37.758;2024-01-07T01:48:47;12.37;79.36
75985;DHT22;65033;44.660;37.758;2024-01-07T01:49:51;12.36;79.48
75985;DHT22;65033;44.660;37.758;2024-01-07T01:50:56;12.38;79.62
75985;DHT22;65033;44.660;37.758;2024-01-07T01:52:01;12.37;79.76
75985;DHT22;65033;44.660;37.758;2024-01-07T01:53:06;12.35;79.40
75985;DHT22;65033;44.660;37.758;2024-01-07T01:54:10;12.35;79.13
75985;DHT22;65033;44.660;37.758;2024-01-07T01:55:14;12.34;79.18
75985;DHT22;65033;44.660;37.758;2024-01-07T01:56:20;12.34;79.15
75985;DHT22;65033;44.660;37.758;2024-01-07T01:57:31;12.35;79.10
75985;DHT22;65033;44.660;37.758;2024-01-07T01:58:36;12.33;78.82
75985;DHT22;65033;44.660;37.758;2024-01-07T01:59:40;12.34;78.99
75985;DHT22;65033;44.660;37.758;2024-01-07T02:00:46;12.31;78.95
75985;DHT22;65033;44.660;37.758;2024-01-07T02:01:51;12.31;79.08
75985;DHT22;65033;44.660;37.758;2024-01-07T02:02:54;12.30;79.11
75985;DHT22;65033;44.660;37.758;2024-01-07T02:03:58;12.29;79.46
75985;DHT22;65033;44.660;37.758;2024-01-07T02:05:02;12.30;79.62
75985;DHT22;65033;44.660;37.758;2024-01-07T02:06:06;12.31;79.65
75985;DHT22;65033;44.660;37.758;2024-01-07T02:07:10;12.31;79.21
75985;DHT22;65033;44.660;37.758;2024-01-07T02:08:15;12.31;79.55
75985;DHT22;65033;44.660;37.758;2024-01-07T02:09:19;12.31;79.82
75985;DHT22;65033;44.660;37.758;2024-01-07T02:10:23;12.31;79.51
75985;DHT22;65033;44.660;37.758;2024-01-07T02:11:26;12.31;79.27
75985;DHT22;65033;44.660;37.758;2024-01-07T02:12:32;12.29;78.59
75985;DHT22;65033;44.660;37.758;2024-01-07T02:13:36;12.30;78.69
75985;DHT22;65033;44.660;37.758;2024-01-07T02:14:39;12.31;78.82
75985;DHT22;65033;44.660;37.758;2024-01-07T02:15:43;12.32;78.27
75985;DHT22;65033;44.660;37.758;2024-01-07T02:16:47;12.32;78.59
75985;DHT22;65033;44.660;37.758;2024-01-07T02:17:51;12.32;79.23
75985;DHT22;65033;44.660;37.758;2024-01-07T02:18:54;12.31;79.37
75985;DHT22;65033;44.660;37.758;2024-01-07T02:19:58;12.32;79.66
75985;DHT22;65033;44.660;37.758;2024-01-07T02:21:02;12.32;79.45
75985;DHT22;65033;44.660;37.758;2024-01-07T02:22:06;12.31;79.15
75985;DHT22;65033;44.660;37.758;2024-01-07T02:23:10;12.31;79.21
75985;DHT22;65033;44.660;37.758;2024-01-07T02:24:17;12.30;79.18
75985;DHT22;65033;44.660;37.758;2024-01-07T02:25:20;12.30;79.32
75985;DHT22;65033;44.660;37.758;2024-01-07T02:26:24;12.29;79.14
75985;DHT22;65033;44.660;37.758;2024-01-07T02:27:28;12.29;79.17
75985;DHT22;65033;44.660;37.758;2024-01-07T02:28:32;12.29;79.17
75985;DHT22;65033;44.660;37.758;2024-01-07T02:29:36;12.28;78.93
75985;DHT22;65033;44.660;37.758;2024-01-07T02:30:40;12.27;79.03
75985;DHT22;65033;44.660;37.758;2024-01-07T02:31:43;12.27;79.01
75985;DHT22;65033;44.660;37.758;2024-01-07T02:32:47;12.26;79.35
75985;DHT22;65033;44.660;37.758;2024-01-07T02:33:51;12.28;79.08
75985;DHT22;65033;44.660;37.758;2024-01-07T02:34:55;12.26;78.66
75985;DHT22;65033;44.660;37.758;2024-01-07T02:35:59;12.27;78.77
75985;DHT22;65033;44.660;37.758;2024-01-07T02:37:03;12.25;78.69
75985;DHT22;65033;44.660;37.758;2024-01-07T02:38:06;12.27;78.92
75985;DHT22;65033;44.660;37.758;2024-01-07T02:39:10;12.27;78.87
75985;DHT22;65033;44.660;37.758;2024-01-07T02:40:15;12.28;79.02
75985;DHT22;65033;44.660;37.758;2024-01-07T02:41:19;12.27;79.51
75985;DHT22;65033;44.660;37.758;2024-01-07T02:42:24;12.28;79.59
75985;DHT22;65033;44.660;37.758;2024-01-07T02:43:30;12.27;79.29
75985;DHT22;65033;44.660;37.758;2024-01-07T02:44:34;12.25;79.56
75985;DHT22;65033;44.660;37.758;2024-01-07T02:45:38;12.26;79.79
75985;DHT22;65033;44.660;37.758;2024-01-07T02:46:42;12.26;80.01
75985;DHT22;65033;44.660;37.758;2024-01-07T02:47:45;12.29;79.88
75985;DHT22;65033;44.660;37.758;2024-01-07T02:48:49;12.29;79.51
75985;DHT22;65033;44.660;37.758;2024-01-07T02:49:53;12.29;79.47
75985;DHT22;65033;44.660;37.758;2024-01-07T02:50:57;12.30;79.48
75985;DHT22;65033;44.660;37.758;2024-01-07T02:52:00;12.29;79.36
75985;DHT22;65033;44.660;37.758;2024-01-07T02:53:04;12.30;79.40
75985;DHT22;65033;44.660;37.758;2024-01-07T02:54:08;12.29;79.09
75985;DHT22;65033;44.660;37.758;2024-01-07T02:55:11;12.29;79.24
75985;DHT22;65033;44.660;37.758;2024-01-07T02:56:17;12.30;79.02
75985;DHT22;65033;44.660;37.758;2024-01-07T02:57:20;12.29;79.11
75985;DHT22;65033;44.660;37.758;2024-01-07T02:58:24;12.29;78.95
75985;DHT22;65033;44.660;37.758;2024-01-07T02:59:28;12.29;79.17
75985;DHT22;65033;44.660;37.758;2024-01-07T03:00:32;12.31;78.90
75985;DHT22;65033;44.660;37.758;2024-01-07T03:01:37;12.33;78.98
75985;DHT22;65033;44.660;37.758;2024-01-07T03:02:43;12.33;79.15
75985;DHT22;65033;44.660;37.758;2024-01-07T03:03:47;12.33;78.66
75985;DHT22;65033;44.660;37.758;2024-01-07T03:04:51;12.34;79.14
75985;DHT22;65033;44.660;37.758;2024-01-07T03:05:54;12.33;78.78
75985;DHT22;65033;44.660;37.758;2024-01-07T03:06:58;12.32;78.83
75985;DHT22;65033;44.660;37.758;2024-01-07T03:08:02;12.33;78.69
75985;DHT22;65033;44.660;37.758;2024-01-07T03:09:06;12.34;78.97
75985;DHT22;65033;44.660;37.758;2024-01-07T03:10:10;12.34;79.05
75985;DHT22;65033;44.660;37.758;2024-01-07T03:11:14;12.32;78.56
75985;DHT22;65033;44.660;37.758;2024-01-07T03:12:19;12.35;78.53
75985;DHT22;65033;44.660;37.758;2024-01-07T03:13:23;12.34;78.46
75985;DHT22;65033;44.660;37.758;2024-01-07T03:14:27;12.33;78.43
75985;DHT22;65033;44.660;37.758;2024-01-07T03:15:30;12.33;78.59
75985;DHT22;65033;44.660;37.758;2024-01-07T03:16:34;12.34;79.13
75985;DHT22;65033;44.660;37.758;2024-01-07T03:17:37;12.32;79.14
75985;DHT22;65033;44.660;37.758;2024-01-07T03:18:41;12.33;79.24
75985;DHT22;65033;44.660;37.758;2024-01-07T03:19:45;12.33;79.24
75985;DHT22;65033;44.660;37.758;2024-01-07T03:20:49;12.33;79.27
75985;DHT22;65033;44.660;37.758;2024-01-07T03:21:52;12.33;79.32
75985;DHT22;65033;44.660;37.758;2024-01-07T03:22:56;12.35;79.29
75985;DHT22;65033;44.660;37.758;2024-01-07T03:24:00;12.34;78.99
75985;DHT22;65033;44.660;37.758;2024-01-07T03:25:04;12.32;78.47
75985;DHT22;65033;44.660;37.758;2024-01-07T03:26:08;12.32;78.24
75985;DHT22;65033;44.660;37.758;2024-01-07T03:27:12;12.34;78.34
75985;DHT22;65033;44.660;37.758;2024-01-07T03:28:17;12.34;78.82
75985;DHT22;65033;44.660;37.758;2024-01-07T03:29:20;12.34;78.92
75985;DHT22;65033;44.660;37.758;2024-01-07T03:30:24;12.34;78.45
75985;DHT22;65033;44.660;37.758;2024-01-07T03:31:27;12.34;78.34
75985;DHT22;65033;44.660;37.758;2024-01-07T03:32:31;12.33;78.32
75985;DHT22;65033;44.660;37.758;2024-01-07T03:33:34;12.34;78.47
75985;DHT22;65033;44.660;37.758;2024-01-07T03:34:39;12.32;78.58
75985;DHT22;65033;44.660;37.758;2024-01-07T03:35:43;12.33;78.82
75985;DHT22;65033;44.660;37.758;2024-01-07T03:36:48;12.32;78.90
75985;DHT22;65033;44.660;37.758;2024-01-07T03:37:52;12.31;78.95
75985;DHT22;65033;44.660;37.758;2024-01-07T03:38:55;12.32;78.94
75985;DHT22;65033;44.660;37.758;2024-01-07T03:39:59;12.31;79.14
75985;DHT22;65033;44.660;37.758;2024-01-07T03:41:03;12.30;78.69
75985;DHT22;65033;44.660;37.758;2024-01-07T03:42:06;12.31;78.81
75985;DHT22;65033;44.660;37.758;2024-01-07T03:43:16;12.30;79.18
75985;DHT22;65033;44.660;37.758;2024-01-07T03:44:19;12.31;79.69
75985;DHT22;65033;44.660;37.758;2024-01-07T03:45:23;12.32;79.53
75985;DHT22;65033;44.660;37.758;2024-01-07T03:46:31;12.31;79.79
75985;DHT22;65033;44.660;37.758;2024-01-07T03:47:34;12.32;79.54
75985;DHT22;65033;44.660;37.758;2024-01-07T03:48:37;12.32;79.76
75985;DHT22;65033;44.660;37.758;2024-01-07T03:49:41;12.32;79.67
75985;DHT22;65033;44.660;37.758;2024-01-07T03:50:45;12.31;79.34
75985;DHT22;65033;44.660;37.758;2024-01-07T03:51:48;12.30;79.66
75985;DHT22;65033;44.660;37.758;2024-01-07T03:52:51;12.32;79.20
75985;DHT22;65033;44.660;37.758;2024-01-07T03:53:55;12.33;79.27
75985;DHT22;65033;44.660;37.758;2024-01-07T03:54:58;12.28;79.57
75985;DHT22;65033;44.660;37.758;2024-01-07T03:56:02;12.30;79.64
75985;DHT22;65033;44.660;37.758;2024-01-07T03:57:05;12.30;79.49
75985;DHT22;65033;44.660;37.758;2024-01-07T03:58:09;12.29;79.90
75985;DHT22;65033;44.660;37.758;2024-01-07T03:59:14;12.31;80.06
75985;DHT22;65033;44.660;37.758;2024-01-07T04:00:17;12.31;80.00
75985;DHT22;65033;44.660;37.758;2024-01-07T04:01:21;12.33;79.97
75985;DHT22;65033;44.660;37.758;2024-01-07T04:02:25;12.32;79.85
75985;DHT22;65033;44.660;37.758;2024-01-07T04:03:29;12.33;80.02
75985;DHT22;65033;44.660;37.758;2024-01-07T04:04:32;12.34;80.58
75985;DHT22;65033;44.660;37.758;2024-01-07T04:05:36;12.34;80.47
75985;DHT22;65033;44.660;37.758;2024-01-07T04:06:41;12.32;80.62
75985;DHT22;65033;44.660;37.758;2024-01-07T04:07:44;12.35;80.72
75985;DHT22;65033;44.660;37.758;2024-01-07T04:08:47;12.35;80.72
75985;DHT22;65033;44.660;37.758;2024-01-07T04:09:51;12.34;80.49
75985;DHT22;65033;44.660;37.758;2024-01-07T04:10:54;12.33;80.14
75985;DHT22;65033;44.660;37.758;2024-01-07T04:11:58;12.33;80.14
75985;DHT22;65033;44.660;37.758;2024-01-07T04:13:01;12.33;80.30
75985;DHT22;65033;44.660;37.758;2024-01-07T04:14:05;12.49;84.26
75985;DHT22;65033;44.660;37.758;2024-01-07T04:15:10;13.10;88.94
75985;DHT22;65033;44.660;37.758;2024-01-07T04:16:17;13.10;78.78
75985;DHT22;65033;44.660;37.758;2024-01-07T04:17:20;13.01;76.66
75985;DHT22;65033;44.660;37.758;2024-01-07T04:18:24;12.93;76.73
75985;DHT22;65033;44.660;37.758;2024-01-07T04:19:28;12.91;77.05
75985;DHT22;65033;44.660;37.758;2024-01-07T04:20:31;12.86;77.31
75985;DHT22;65033;44.660;37.758;2024-01-07T04:21:35;12.84;77.66
75985;DHT22;65033;44.660;37.758;2024-01-07T04:22:39;12.78;77.74
75985;DHT22;65033;44.660;37.758;2024-01-07T04:23:42;12.72;78.12
75985;DHT22;65033;44.660;37.758;2024-01-07T04:24:46;12.70;78.43
75985;DHT22;65033;44.660;37.758;2024-01-07T04:25:50;12.65;78.68
75985;DHT22;65033;44.660;37.758;2024-01-07T04:26:53;12.61;78.75
75985;DHT22;65033;44.660;37.758;2024-01-07T04:27:56;12.58;78.82
75985;DHT22;65033;44.660;37.758;2024-01-07T04:29:00;12.55;79.22
75985;DHT22;65033;44.660;37.758;2024-01-07T04:30:05;12.52;79.12
75985;DHT22;65033;44.660;37.758;2024-01-07T04:31:10;12.51;78.95
75985;DHT22;65033;44.660;37.758;2024-01-07T04:32:14;12.49;79.25
75985;DHT22;65033;44.660;37.758;2024-01-07T04:33:18;12.47;79.14
75985;DHT22;65033;44.660;37.758;2024-01-07T04:34:21;12.45;79.21
75985;DHT22;65033;44.660;37.758;2024-01-07T04:35:26;12.46;79.08
75985;DHT22;65033;44.660;37.758;2024-01-07T04:36:29;12.44;79.06
75985;DHT22;65033;44.660;37.758;2024-01-07T04:37:34;12.44;79.07
75985;DHT22;65033;44.660;37.758;2024-01-07T04:38:38;12.43;79.23
75985;DHT22;65033;44.660;37.758;2024-01-07T04:39:42;12.42;79.31
75985;DHT22;65033;44.660;37.758;2024-01-07T04:40:46;12.43;79.08
75985;DHT22;65033;44.660;37.758;2024-01-07T04:41:49;12.43;79.08
75985;DHT22;65033;44.660;37.758;2024-01-07T04:42:53;12.41;79.24
75985;DHT22;65033;44.660;37.758;2024-01-07T04:43:57;12.40;79.10
75985;DHT22;65033;44.660;37.758;2024-01-07T04:45:00;12.40;79.04
75985;DHT22;65033;44.660;37.758;2024-01-07T04:46:04;12.37;79.00
75985;DHT22;65033;44.660;37.758;2024-01-07T04:48:33;12.37;79.08
75985;DHT22;65033;44.660;37.758;2024-01-07T04:49:38;12.36;78.89
75985;DHT22;65033;44.660;37.758;2024-01-07T04:50:42;12.35;78.79
75985;DHT22;65033;44.660;37.758;2024-01-07T04:51:45;12.35;78.83
75985;DHT22;65033;44.660;37.758;2024-01-07T04:52:49;12.35;78.87
75985;DHT22;65033;44.660;37.758;2024-01-07T04:53:53;12.36;79.03
75985;DHT22;65033;44.660;37.758;2024-01-07T04:54:56;12.35;78.99
75985;DHT22;65033;44.660;37.758;2024-01-07T04:56:01;12.36;78.72
75985;DHT22;65033;44.660;37.758;2024-01-07T04:57:05;12.33;78.78
75985;DHT22;65033;44.660;37.758;2024-01-07T04:58:09;12.33;78.88
75985;DHT22;65033;44.660;37.758;2024-01-07T04:59:13;12.32;79.14
75985;DHT22;65033;44.660;37.758;2024-01-07T05:00:17;12.32;79.49
75985;DHT22;65033;44.660;37.758;2024-01-07T05:01:21;12.33;79.30
75985;DHT22;65033;44.660;37.758;2024-01-07T05:02:25;12.33;79.34
75985;DHT22;65033;44.660;37.758;2024-01-07T05:03:29;12.34;79.29
75985;DHT22;65033;44.660;37.758;2024-01-07T05:04:35;12.33;78.90
75985;DHT22;65033;44.660;37.758;2024-01-07T05:05:42;12.32;79.05
75985;DHT22;65033;44.660;37.758;2024-01-07T05:06:46;12.30;79.07
75985;DHT22;65033;44.660;37.758;2024-01-07T05:07:50;12.30;79.40
75985;DHT22;65033;44.660;37.758;2024-01-07T05:08:53;12.30;79.28
75985;DHT22;65033;44.660;37.758;2024-01-07T05:09:57;12.30;79.01
75985;DHT22;65033;44.660;37.758;2024-01-07T05:11:01;12.33;78.84
75985;DHT22;65033;44.660;37.758;2024-01-07T05:12:05;12.35;79.00
75985;DHT22;65033;44.660;37.758;2024-01-07T05:13:09;12.36;79.01
75985;DHT22;65033;44.660;37.758;2024-01-07T05:14:13;12.36;79.26
75985;DHT22;65033;44.660;37.758;2024-01-07T05:15:16;12.35;79.29
75985;DHT22;65033;44.660;37.758;2024-01-07T05:16:20;12.35;78.81
75985;DHT22;65033;44.660;37.758;2024-01-07T05:17:24;12.34;78.64
75985;DHT22;65033;44.660;37.758;2024-01-07T05:18:28;12.34;78.81
75985;DHT22;65033;44.660;37.758;2024-01-07T05:19:32;12.35;78.98
75985;DHT22;65033;44.660;37.758;2024-01-07T05:20:37;12.34;79.14
75985;DHT22;65033;44.660;37.758;2024-01-07T05:21:41;12.36;79.14
75985;DHT22;65033;44.660;37.758;2024-01-07T05:22:45;12.35;78.87
75985;DHT22;65033;44.660;37.758;2024-01-07T05:23:48;12.38;78.83
75985;DHT22;65033;44.660;37.758;2024-01-07T05:24:52;12.35;78.58
75985;DHT22;65033;44.660;37.758;2024-01-07T05:25:56;12.35;78.30
75985;DHT22;65033;44.660;37.758;2024-01-07T05:27:03;12.34;78.58
75985;DHT22;65033;44.660;37.758;2024-01-07T05:28:07;12.37;78.44
75985;DHT22;65033;44.660;37.758;2024-01-07T05:29:11;12.38;77.80
75985;DHT22;65033;44.660;37.758;2024-01-07T05:30:15;12.38;77.50
75985;DHT22;65033;44.660;37.758;2024-01-07T05:31:19;12.38;77.47
75985;DHT22;65033;44.660;37.758;2024-01-07T05:32:23;12.37;77.68
75985;DHT22;65033;44.660;37.758;2024-01-07T05:33:27;12.41;77.47
75985;DHT22;65033;44.660;37.758;2024-01-07T05:34:30;12.40;77.56
75985;DHT22;65033;44.660;37.758;2024-01-07T05:35:35;12.41;77.61
75985;DHT22;65033;44.660;37.758;2024-01-07T05:36:40;12.43;77.85
75985;DHT22;65033;44.660;37.758;2024-01-07T05:37:43;12.43;78.08
75985;DHT22;65033;44.660;37.758;2024-01-07T05:38:47;12.45;77.60
75985;DHT22;65033;44.660;37.758;2024-01-07T05:39:51;12.45;77.36
75985;DHT22;65033;44.660;37.758;2024-01-07T05:40:54;12.46;77.46
75985;DHT22;65033;44.660;37.758;2024-01-07T05:41:58;12.48;77.14
75985;DHT22;65033;44.660;37.758;2024-01-07T05:43:02;12.50;77.31
75985;DHT22;65033;44.660;37.758;2024-01-07T05:44:07;12.53;76.91
75985;DHT22;65033;44.660;37.758;2024-01-07T05:45:11;12.56;77.07
75985;DHT22;65033;44.660;37.758;2024-01-07T05:46:15;12.59;77.12
75985;DHT22;65033;44.660;37.758;2024-01-07T05:47:19;12.64;77.31
75985;DHT22;65033;44.660;37.758;2024-01-07T05:48:23;12.65;76.83
75985;DHT22;65033;44.660;37.758;2024-01-07T05:49:27;12.67;76.45
75985;DHT22;65033;44.660;37.758;2024-01-07T05:50:30;12.70;76.22
75985;DHT22;65033;44.660;37.758;2024-01-07T05:51:37;12.72;75.93
75985;DHT22;65033;44.660;37.758;2024-01-07T05:52:43;13.26;88.18
75985;DHT22;65033;44.660;37.758;2024-01-07T05:53:47;14.34;95.30
75985;DHT22;65033;44.660;37.758;2024-01-07T05:54:51;14.17;76.09
75985;DHT22;65033;44.660;37.758;2024-01-07T05:55:55;14.11;71.80
75985;DHT22;65033;44.660;37.758;2024-01-07T05:56:59;14.03;71.78
75985;DHT22;65033;44.660;37.758;2024-01-07T05:58:02;13.92;71.34
75985;DHT22;65033;44.660;37.758;2024-01-07T05:59:06;13.80;71.59
75985;DHT22;65033;44.660;37.758;2024-01-07T06:00:12;13.71;72.02
75985;DHT22;65033;44.660;37.758;2024-01-07T06:01:20;13.68;72.45
75985;DHT22;65033;44.660;37.758;2024-01-07T06:02:24;13.63;72.45
75985;DHT22;65033;44.660;37.758;2024-01-07T06:03:28;13.59;72.63
75985;DHT22;65033;44.660;37.758;2024-01-07T06:04:32;13.53;73.37
75985;DHT22;65033;44.660;37.758;2024-01-07T06:05:38;13.50;73.18
75985;DHT22;65033;44.660;37.758;2024-01-07T06:06:42;13.47;73.52
75985;DHT22;65033;44.660;37.758;2024-01-07T06:07:47;13.49;73.43
75985;DHT22;65033;44.660;37.758;2024-01-07T06:08:51;13.50;73.62
75985;DHT22;65033;44.660;37.758;2024-01-07T06:09:55;13.51;73.12
75985;DHT22;65033;44.660;37.758;2024-01-07T06:10:58;13.53;73.25
75985;DHT22;65033;44.660;37.758;2024-01-07T06:12:02;13.51;72.65
75985;DHT22;65033;44.660;37.758;2024-01-07T06:13:06;13.52;72.70
75985;DHT22;65033;44.660;37.758;2024-01-07T06:14:10;13.55;72.55
75985;DHT22;65033;44.660;37.758;2024-01-07T06:15:14;13.58;72.53
75985;DHT22;65033;44.660;37.758;2024-01-07T06:16:17;13.59;72.40
75985;DHT22;65033;44.660;37.758;2024-01-07T06:17:21;13.59;72.45
75985;DHT22;65033;44.660;37.758;2024-01-07T06:18:24;13.60;72.29
75985;DHT22;65033;44.660;37.758;2024-01-07T06:19:29;13.63;72.25
75985;DHT22;65033;44.660;37.758;2024-01-07T06:20:33;13.62;71.86
75985;DHT22;65033;44.660;37.758;2024-01-07T06:21:37;13.65;71.96
75985;DHT22;65033;44.660;37.758;2024-01-07T06:22:41;13.67;71.74
75985;DHT22;65033;44.660;37.758;2024-01-07T06:23:46;13.68;71.78
75985;DHT22;65033;44.660;37.758;2024-01-07T06:24:50;13.69;71.83
75985;DHT22;65033;44.660;37.758;2024-01-07T06:25:54;13.70;71.95
75985;DHT22;65033;44.660;37.758;2024-01-07T06:26:57;13.68;71.42
75985;DHT22;65033;44.660;37.758;2024-01-07T06:28:01;13.71;71.35
75985;DHT22;65033;44.660;37.758;2024-01-07T06:29:05;13.70;71.39
75985;DHT22;65033;44.660;37.758;2024-01-07T06:30:09;14.54;88.79
75985;DHT22;65033;44.660;37.758;2024-01-07T06:31:13;14.72;75.54
75985;DHT22;65033;44.660;37.758;2024-01-07T06:32:16;15.21;72.88
75985;DHT22;65033;44.660;37.758;2024-01-07T06:33:20;15.11;66.47
75985;DHT22;65033;44.660;37.758;2024-01-07T06:34:24;15.04;65.43
75985;DHT22;65033;44.660;37.758;2024-01-07T06:35:27;14.91;65.14
75985;DHT22;65033;44.660;37.758;2024-01-07T06:36:31;14.79;66.07
75985;DHT22;65033;44.660;37.758;2024-01-07T06:37:35;14.71;66.50
75985;DHT22;65033;44.660;37.758;2024-01-07T06:38:38;14.67;66.93
75985;DHT22;65033;44.660;37.758;2024-01-07T06:39:44;14.59;66.68